Strona główna
METAR-TAF:

METAR-TAF

Lotnisko :

Port lotniczy Kuching

Kuching, Malezja

Szerokość geograficzna: 01-29N, Długość geograficzna: 110-20E, wysokość: 27 m

Aktualna obserwacja pogody

Raport powstał 32 minut temu, godzina 15:30 UTC
Wiatr 2 kt z kierunków zmiennych
Temperatura 26°C
Wilgotność 94%
Ciśnienie 1011 hPa
Widzialność 10 km lub więcej
Mało chmury na wysokości 1500 ft, Cumulonimbus.
Rozproszone chmury na wysokości 2000 ft
Przerywane chmury na wysokości 15000 ft

METAR: WBGG 261530Z VRB02KT 9999 FEW015CB SCT020 BKN150 26/25 Q1011 NOSIG

czas: 00:02 (16:02 UTC)

Prognoza

Raport powstał 5 godziny i 2 minut temu, godzina 11:00 UTC
Prognoza ważna od 26 godzina 12 UTC do 27 godzina 12 UTC
Wiatr 3 kt z kierunków zmiennych
Widzialność 10 km lub więcej
Rozproszone chmury na wysokości 1600 ft

TAF: WBGG 261100Z 2612/2712 VRB03KT 9999 SCT016

Obserwacja i prognoza pogody dla ponad 4000 lotnisk (raport METAR i TAF).

Dostępne stacje oznaczono żółtymi i czerwonymi punktami na mapie.

Najedź kursorem aby zobaczyć nazwę stacji.

Kliknij aby zobaczyć obserwacje i prognozy pogody.

Aby zmienić mapę: kliknij na zielony przycisk z czarnym krzyżykiem, aby powiększyć; na zielony przycisk z myślnikiem, aby pomniejszyć; na zielone strzałki, aby przejść do map sąsiednich.


METAR-TAF: